sensor_id;sensor_type;location;lat;lon;timestamp;noise_LAeq;noise_LA_min;noise_LA_max;noise_LA01;noise_LA95
61270;Laerm;47150;53.032;8.960;2023-02-20T00:00:41;38.34;37.21;39.68;;
61270;Laerm;47150;53.032;8.960;2023-02-20T00:03:07;38.32;36.80;39.79;;
61270;Laerm;47150;53.032;8.960;2023-02-20T00:05:33;38.30;37.04;39.44;;
61270;Laerm;47150;53.032;8.960;2023-02-20T00:07:59;38.33;36.93;39.47;;
61270;Laerm;47150;53.032;8.960;2023-02-20T00:10:24;38.34;37.09;39.46;;
61270;Laerm;47150;53.032;8.960;2023-02-20T00:12:50;38.34;36.90;39.67;;
61270;Laerm;47150;53.032;8.960;2023-02-20T00:15:20;38.32;36.81;39.49;;
61270;Laerm;47150;53.032;8.960;2023-02-20T00:17:46;38.32;36.80;39.52;;
61270;Laerm;47150;53.032;8.960;2023-02-20T00:20:14;38.30;37.02;39.60;;
61270;Laerm;47150;53.032;8.960;2023-02-20T00:22:39;38.30;36.89;39.43;;
61270;Laerm;47150;53.032;8.960;2023-02-20T00:25:05;38.30;36.79;39.57;;
61270;Laerm;47150;53.032;8.960;2023-02-20T00:27:30;38.30;36.82;39.63;;
61270;Laerm;47150;53.032;8.960;2023-02-20T00:29:56;38.29;36.85;39.55;;
61270;Laerm;47150;53.032;8.960;2023-02-20T00:32:21;38.30;36.82;39.75;;
61270;Laerm;47150;53.032;8.960;2023-02-20T00:34:46;38.30;36.91;39.49;;
61270;Laerm;47150;53.032;8.960;2023-02-20T00:37:12;38.29;36.99;39.72;;
61270;Laerm;47150;53.032;8.960;2023-02-20T00:39:37;38.29;37.09;39.58;;
61270;Laerm;47150;53.032;8.960;2023-02-20T00:42:03;38.30;36.93;39.55;;
61270;Laerm;47150;53.032;8.960;2023-02-20T00:44:28;38.29;36.85;39.49;;
61270;Laerm;47150;53.032;8.960;2023-02-20T00:46:53;38.29;37.03;39.56;;
61270;Laerm;47150;53.032;8.960;2023-02-20T00:49:19;38.27;37.09;39.52;;
61270;Laerm;47150;53.032;8.960;2023-02-20T00:51:44;38.29;36.83;39.57;;
61270;Laerm;47150;53.032;8.960;2023-02-20T00:54:10;38.29;36.95;39.85;;
61270;Laerm;47150;53.032;8.960;2023-02-20T00:56:35;38.29;36.84;39.71;;
61270;Laerm;47150;53.032;8.960;2023-02-20T00:59:00;38.30;36.81;39.48;;
61270;Laerm;47150;53.032;8.960;2023-02-20T01:01:26;38.29;37.10;42.43;;
61270;Laerm;47150;53.032;8.960;2023-02-20T01:03:51;38.28;36.96;39.54;;
61270;Laerm;47150;53.032;8.960;2023-02-20T01:06:17;38.29;37.08;39.67;;
61270;Laerm;47150;53.032;8.960;2023-02-20T01:08:42;38.29;37.04;39.51;;
61270;Laerm;47150;53.032;8.960;2023-02-20T01:11:07;38.29;36.93;39.45;;
61270;Laerm;47150;53.032;8.960;2023-02-20T01:13:33;38.29;36.97;39.58;;
61270;Laerm;47150;53.032;8.960;2023-02-20T01:15:58;38.29;36.84;39.57;;
61270;Laerm;47150;53.032;8.960;2023-02-20T01:18:24;38.28;36.98;39.66;;
61270;Laerm;47150;53.032;8.960;2023-02-20T01:20:49;38.29;36.99;39.41;;
61270;Laerm;47150;53.032;8.960;2023-02-20T01:23:15;38.29;36.93;39.48;;
61270;Laerm;47150;53.032;8.960;2023-02-20T01:25:40;38.31;37.00;39.51;;
61270;Laerm;47150;53.032;8.960;2023-02-20T01:28:05;38.30;37.00;39.51;;
61270;Laerm;47150;53.032;8.960;2023-02-20T01:30:31;38.30;37.01;39.78;;
61270;Laerm;47150;53.032;8.960;2023-02-20T01:32:56;38.29;36.65;39.56;;
61270;Laerm;47150;53.032;8.960;2023-02-20T01:35:22;38.30;36.83;39.49;;
61270;Laerm;47150;53.032;8.960;2023-02-20T01:37:47;38.31;36.83;39.48;;
61270;Laerm;47150;53.032;8.960;2023-02-20T01:40:20;38.31;36.37;39.51;;
61270;Laerm;47150;53.032;8.960;2023-02-20T01:42:46;38.30;36.83;39.54;;
61270;Laerm;47150;53.032;8.960;2023-02-20T01:47:49;38.30;36.93;39.57;;
61270;Laerm;47150;53.032;8.960;2023-02-20T01:50:17;38.30;36.78;39.57;;
61270;Laerm;47150;53.032;8.960;2023-02-20T01:52:47;38.30;36.87;39.45;;
61270;Laerm;47150;53.032;8.960;2023-02-20T01:55:23;38.31;37.06;39.59;;
61270;Laerm;47150;53.032;8.960;2023-02-20T01:57:54;38.31;36.86;39.46;;
61270;Laerm;47150;53.032;8.960;2023-02-20T02:00:21;38.33;36.94;39.53;;
61270;Laerm;47150;53.032;8.960;2023-02-20T02:02:59;38.32;37.00;39.66;;
61270;Laerm;47150;53.032;8.960;2023-02-20T02:05:27;38.32;37.02;39.64;;
61270;Laerm;47150;53.032;8.960;2023-02-20T02:07:55;38.30;36.93;39.60;;
61270;Laerm;47150;53.032;8.960;2023-02-20T02:10:32;38.30;36.98;39.81;;
61270;Laerm;47150;53.032;8.960;2023-02-20T02:13:01;38.31;36.88;39.46;;
61270;Laerm;47150;53.032;8.960;2023-02-20T02:15:27;38.29;36.98;39.47;;
61270;Laerm;47150;53.032;8.960;2023-02-20T02:37:46;38.28;36.61;39.48;;
61270;Laerm;47150;53.032;8.960;2023-02-20T02:40:27;38.28;37.06;39.71;;
61270;Laerm;47150;53.032;8.960;2023-02-20T02:43:16;38.29;37.01;39.51;;
61270;Laerm;47150;53.032;8.960;2023-02-20T02:48:40;38.29;36.98;39.80;;
61270;Laerm;47150;53.032;8.960;2023-02-20T02:51:14;38.28;37.09;39.98;;
61270;Laerm;47150;53.032;8.960;2023-02-20T02:53:40;38.28;36.97;39.54;;
61270;Laerm;47150;53.032;8.960;2023-02-20T02:56:05;38.29;36.99;39.52;;
61270;Laerm;47150;53.032;8.960;2023-02-20T02:58:47;38.28;37.12;39.58;;
61270;Laerm;47150;53.032;8.960;2023-02-20T03:01:16;38.30;36.87;39.38;;
61270;Laerm;47150;53.032;8.960;2023-02-20T03:03:45;38.30;37.04;39.70;;
61270;Laerm;47150;53.032;8.960;2023-02-20T03:06:14;38.30;36.93;39.53;;
61270;Laerm;47150;53.032;8.960;2023-02-20T03:08:45;38.31;37.01;39.75;;
61270;Laerm;47150;53.032;8.960;2023-02-20T03:11:16;38.31;36.97;39.56;;
61270;Laerm;47150;53.032;8.960;2023-02-20T03:16:36;38.31;36.81;39.66;;
61270;Laerm;47150;53.032;8.960;2023-02-20T03:19:08;38.31;36.99;39.46;;
61270;Laerm;47150;53.032;8.960;2023-02-20T03:21:40;38.31;36.73;39.57;;
61270;Laerm;47150;53.032;8.960;2023-02-20T03:24:09;38.31;37.02;39.52;;
61270;Laerm;47150;53.032;8.960;2023-02-20T03:26:38;38.31;37.08;39.52;;
61270;Laerm;47150;53.032;8.960;2023-02-20T03:29:13;38.31;36.89;42.29;;
61270;Laerm;47150;53.032;8.960;2023-02-20T03:31:50;38.30;36.96;39.37;;
61270;Laerm;47150;53.032;8.960;2023-02-20T03:34:36;38.29;36.99;39.34;;
61270;Laerm;47150;53.032;8.960;2023-02-20T03:37:21;38.29;36.88;39.76;;
61270;Laerm;47150;53.032;8.960;2023-02-20T03:40:10;38.31;36.89;41.43;;
61270;Laerm;47150;53.032;8.960;2023-02-20T03:43:00;38.33;37.01;40.51;;
61270;Laerm;47150;53.032;8.960;2023-02-20T03:45:46;38.37;37.12;43.30;;
61270;Laerm;47150;53.032;8.960;2023-02-20T03:50:54;38.31;37.01;42.51;;
61270;Laerm;47150;53.032;8.960;2023-02-20T03:53:20;38.29;36.93;39.48;;
61270;Laerm;47150;53.032;8.960;2023-02-20T03:55:46;38.27;36.93;39.69;;
61270;Laerm;47150;53.032;8.960;2023-02-20T03:58:14;38.32;36.95;41.05;;
61270;Laerm;47150;53.032;8.960;2023-02-20T04:00:44;38.30;37.00;40.17;;
61270;Laerm;47150;53.032;8.960;2023-02-20T04:03:17;38.27;36.85;39.46;;
61270;Laerm;47150;53.032;8.960;2023-02-20T04:05:46;38.24;36.87;41.26;;
61270;Laerm;47150;53.032;8.960;2023-02-20T04:08:17;38.25;36.82;40.20;;
61270;Laerm;47150;53.032;8.960;2023-02-20T04:13:16;38.22;36.84;39.47;;
61270;Laerm;47150;53.032;8.960;2023-02-20T04:15:42;38.22;36.91;39.32;;
61270;Laerm;47150;53.032;8.960;2023-02-20T04:18:10;38.24;36.76;39.41;;
61270;Laerm;47150;53.032;8.960;2023-02-20T04:20:37;38.23;37.03;39.60;;
61270;Laerm;47150;53.032;8.960;2023-02-20T04:23:07;38.22;36.88;39.56;;
61270;Laerm;47150;53.032;8.960;2023-02-20T04:28:08;38.23;36.91;39.57;;
61270;Laerm;47150;53.032;8.960;2023-02-20T04:30:34;38.25;36.79;39.53;;
61270;Laerm;47150;53.032;8.960;2023-02-20T04:33:00;38.25;37.07;39.39;;
61270;Laerm;47150;53.032;8.960;2023-02-20T04:35:26;38.25;36.86;39.66;;
61270;Laerm;47150;53.032;8.960;2023-02-20T04:37:51;38.26;37.08;39.46;;
61270;Laerm;47150;53.032;8.960;2023-02-20T04:40:20;38.25;36.91;39.41;;
61270;Laerm;47150;53.032;8.960;2023-02-20T04:42:45;38.26;36.94;39.51;;
61270;Laerm;47150;53.032;8.960;2023-02-20T04:45:11;38.28;36.95;39.43;;
61270;Laerm;47150;53.032;8.960;2023-02-20T04:47:36;38.28;36.90;40.19;;
61270;Laerm;47150;53.032;8.960;2023-02-20T04:50:02;38.29;36.99;39.68;;
61270;Laerm;47150;53.032;8.960;2023-02-20T04:52:28;38.29;37.05;39.51;;
61270;Laerm;47150;53.032;8.960;2023-02-20T04:54:53;38.30;36.90;39.53;;
61270;Laerm;47150;53.032;8.960;2023-02-20T04:57:18;38.30;37.10;39.40;;
61270;Laerm;47150;53.032;8.960;2023-02-20T04:59:44;38.30;37.12;39.55;;
61270;Laerm;47150;53.032;8.960;2023-02-20T05:02:09;38.33;37.02;39.62;;
61270;Laerm;47150;53.032;8.960;2023-02-20T05:04:35;38.32;37.03;39.49;;
61270;Laerm;47150;53.032;8.960;2023-02-20T05:07:01;38.32;36.91;39.59;;
61270;Laerm;47150;53.032;8.960;2023-02-20T05:09:27;38.33;37.08;39.71;;
61270;Laerm;47150;53.032;8.960;2023-02-20T05:11:53;38.32;36.78;39.63;;
61270;Laerm;47150;53.032;8.960;2023-02-20T05:14:19;38.33;37.08;41.06;;
61270;Laerm;47150;53.032;8.960;2023-02-20T05:16:44;38.33;37.01;39.51;;
61270;Laerm;47150;53.032;8.960;2023-02-20T05:19:10;38.34;37.08;39.64;;
61270;Laerm;47150;53.032;8.960;2023-02-20T05:21:36;38.34;37.11;39.80;;
61270;Laerm;47150;53.032;8.960;2023-02-20T05:24:20;38.36;36.97;40.68;;
61270;Laerm;47150;53.032;8.960;2023-02-20T05:26:46;38.35;37.09;39.49;;
61270;Laerm;47150;53.032;8.960;2023-02-20T05:29:11;38.35;36.91;39.45;;
61270;Laerm;47150;53.032;8.960;2023-02-20T05:31:41;38.35;36.97;40.01;;
61270;Laerm;47150;53.032;8.960;2023-02-20T05:34:07;38.35;36.78;39.64;;
61270;Laerm;47150;53.032;8.960;2023-02-20T05:36:33;38.36;36.97;39.61;;
61270;Laerm;47150;53.032;8.960;2023-02-20T05:38:58;38.36;37.06;39.52;;
61270;Laerm;47150;53.032;8.960;2023-02-20T05:41:24;38.37;37.06;39.59;;
61270;Laerm;47150;53.032;8.960;2023-02-20T05:43:49;38.37;37.19;39.54;;
61270;Laerm;47150;53.032;8.960;2023-02-20T05:46:15;38.39;37.18;39.51;;
61270;Laerm;47150;53.032;8.960;2023-02-20T05:48:41;38.40;37.06;39.55;;
61270;Laerm;47150;53.032;8.960;2023-02-20T05:51:07;38.39;37.14;39.64;;
61270;Laerm;47150;53.032;8.960;2023-02-20T05:53:33;38.40;36.85;39.59;;
61270;Laerm;47150;53.032;8.960;2023-02-20T05:55:58;38.42;37.12;39.76;;
61270;Laerm;47150;53.032;8.960;2023-02-20T05:58:24;38.44;37.12;39.85;;
61270;Laerm;47150;53.032;8.960;2023-02-20T06:00:50;38.44;37.08;39.68;;
61270;Laerm;47150;53.032;8.960;2023-02-20T06:03:16;38.45;37.18;39.77;;
61270;Laerm;47150;53.032;8.960;2023-02-20T06:05:42;38.48;37.11;39.81;;
61270;Laerm;47150;53.032;8.960;2023-02-20T06:08:08;38.50;37.24;39.75;;
61270;Laerm;47150;53.032;8.960;2023-02-20T06:10:33;38.50;37.20;39.66;;
61270;Laerm;47150;53.032;8.960;2023-02-20T06:12:59;38.51;37.20;39.72;;
61270;Laerm;47150;53.032;8.960;2023-02-20T06:15:25;38.52;37.24;39.69;;
61270;Laerm;47150;53.032;8.960;2023-02-20T06:17:50;38.53;37.17;39.75;;
61270;Laerm;47150;53.032;8.960;2023-02-20T06:20:16;38.53;37.24;39.65;;
61270;Laerm;47150;53.032;8.960;2023-02-20T06:22:41;38.55;37.30;39.78;;
61270;Laerm;47150;53.032;8.960;2023-02-20T06:25:07;38.56;37.23;39.95;;
61270;Laerm;47150;53.032;8.960;2023-02-20T06:27:33;38.58;37.41;39.86;;
61270;Laerm;47150;53.032;8.960;2023-02-20T06:29:58;38.58;37.34;39.60;;
61270;Laerm;47150;53.032;8.960;2023-02-20T06:32:23;38.61;37.20;39.92;;
61270;Laerm;47150;53.032;8.960;2023-02-20T06:34:49;38.63;37.36;40.01;;
61270;Laerm;47150;53.032;8.960;2023-02-20T06:37:14;38.64;37.36;39.91;;
61270;Laerm;47150;53.032;8.960;2023-02-20T06:39:41;38.65;37.34;39.87;;
61270;Laerm;47150;53.032;8.960;2023-02-20T06:42:10;38.66;37.26;39.85;;
61270;Laerm;47150;53.032;8.960;2023-02-20T06:44:35;38.65;37.36;40.23;;
61270;Laerm;47150;53.032;8.960;2023-02-20T06:47:00;38.64;37.07;39.79;;
61270;Laerm;47150;53.032;8.960;2023-02-20T06:49:26;38.65;37.47;39.83;;
61270;Laerm;47150;53.032;8.960;2023-02-20T06:51:52;38.64;37.30;39.90;;
61270;Laerm;47150;53.032;8.960;2023-02-20T06:54:19;38.67;37.43;40.31;;
61270;Laerm;47150;53.032;8.960;2023-02-20T06:56:46;38.67;37.28;40.07;;
61270;Laerm;47150;53.032;8.960;2023-02-20T06:59:12;38.66;37.31;39.88;;
61270;Laerm;47150;53.032;8.960;2023-02-20T07:01:40;38.66;37.27;39.98;;
61270;Laerm;47150;53.032;8.960;2023-02-20T07:04:13;38.66;37.26;39.92;;
61270;Laerm;47150;53.032;8.960;2023-02-20T07:06:39;38.65;37.53;39.87;;
61270;Laerm;47150;53.032;8.960;2023-02-20T07:09:06;38.71;37.33;42.17;;
61270;Laerm;47150;53.032;8.960;2023-02-20T07:11:31;38.68;37.32;41.21;;
61270;Laerm;47150;53.032;8.960;2023-02-20T07:13:57;38.65;37.15;39.85;;
61270;Laerm;47150;53.032;8.960;2023-02-20T07:16:22;38.64;37.21;39.90;;
61270;Laerm;47150;53.032;8.960;2023-02-20T07:18:47;38.64;37.32;41.15;;
61270;Laerm;47150;53.032;8.960;2023-02-20T07:21:13;38.62;37.22;39.89;;
61270;Laerm;47150;53.032;8.960;2023-02-20T07:23:38;38.61;37.31;39.90;;
61270;Laerm;47150;53.032;8.960;2023-02-20T07:26:04;38.60;37.23;39.67;;
61270;Laerm;47150;53.032;8.960;2023-02-20T07:28:29;38.61;37.36;41.84;;
61270;Laerm;47150;53.032;8.960;2023-02-20T07:30:55;38.61;37.23;42.35;;
61270;Laerm;47150;53.032;8.960;2023-02-20T07:33:20;38.60;37.38;42.34;;
61270;Laerm;47150;53.032;8.960;2023-02-20T07:35:45;38.58;37.17;39.78;;
61270;Laerm;47150;53.032;8.960;2023-02-20T07:38:11;38.59;37.34;40.87;;
61270;Laerm;47150;53.032;8.960;2023-02-20T07:40:37;38.59;37.32;42.53;;
61270;Laerm;47150;53.032;8.960;2023-02-20T07:43:02;38.57;37.23;39.70;;
61270;Laerm;47150;53.032;8.960;2023-02-20T07:45:28;38.57;37.33;39.83;;
61270;Laerm;47150;53.032;8.960;2023-02-20T07:47:54;38.57;37.05;39.76;;
61270;Laerm;47150;53.032;8.960;2023-02-20T07:50:19;38.55;37.23;39.94;;
61270;Laerm;47150;53.032;8.960;2023-02-20T07:52:45;38.55;37.28;39.71;;
61270;Laerm;47150;53.032;8.960;2023-02-20T07:55:17;38.57;37.19;39.74;;
61270;Laerm;47150;53.032;8.960;2023-02-20T07:57:45;38.58;37.22;40.80;;
61270;Laerm;47150;53.032;8.960;2023-02-20T08:00:18;38.57;37.38;39.62;;
61270;Laerm;47150;53.032;8.960;2023-02-20T08:02:44;38.60;37.07;42.11;;
61270;Laerm;47150;53.032;8.960;2023-02-20T08:05:10;38.55;37.11;39.83;;
61270;Laerm;47150;53.032;8.960;2023-02-20T08:07:35;38.56;37.11;41.35;;
61270;Laerm;47150;53.032;8.960;2023-02-20T08:10:01;38.56;37.28;39.77;;
61270;Laerm;47150;53.032;8.960;2023-02-20T08:12:26;38.56;37.27;39.70;;
61270;Laerm;47150;53.032;8.960;2023-02-20T08:14:52;38.55;37.19;39.74;;
61270;Laerm;47150;53.032;8.960;2023-02-20T08:17:17;38.56;37.38;41.57;;
61270;Laerm;47150;53.032;8.960;2023-02-20T08:19:43;38.57;37.29;39.88;;
61270;Laerm;47150;53.032;8.960;2023-02-20T08:22:08;38.57;37.13;40.57;;
61270;Laerm;47150;53.032;8.960;2023-02-20T08:24:33;38.55;37.24;39.76;;
61270;Laerm;47150;53.032;8.960;2023-02-20T08:26:59;38.57;37.21;39.81;;
61270;Laerm;47150;53.032;8.960;2023-02-20T08:29:24;38.58;37.03;39.89;;
61270;Laerm;47150;53.032;8.960;2023-02-20T08:31:50;38.58;37.27;39.73;;
61270;Laerm;47150;53.032;8.960;2023-02-20T08:34:15;38.58;36.81;40.23;;
61270;Laerm;47150;53.032;8.960;2023-02-20T08:36:41;38.60;37.09;41.31;;
61270;Laerm;47150;53.032;8.960;2023-02-20T08:39:06;38.62;37.33;39.83;;
61270;Laerm;47150;53.032;8.960;2023-02-20T08:41:31;38.61;37.44;40.99;;
61270;Laerm;47150;53.032;8.960;2023-02-20T08:43:57;38.59;37.31;40.28;;
61270;Laerm;47150;53.032;8.960;2023-02-20T08:46:22;38.60;37.38;39.79;;
61270;Laerm;47150;53.032;8.960;2023-02-20T08:48:48;38.60;37.20;39.77;;
61270;Laerm;47150;53.032;8.960;2023-02-20T08:51:17;38.60;37.33;40.04;;
61270;Laerm;47150;53.032;8.960;2023-02-20T08:53:43;38.60;37.34;42.35;;
61270;Laerm;47150;53.032;8.960;2023-02-20T08:56:09;38.59;37.30;41.29;;
61270;Laerm;47150;53.032;8.960;2023-02-20T08:58:37;38.66;37.36;44.40;;
61270;Laerm;47150;53.032;8.960;2023-02-20T09:01:02;38.61;37.30;39.90;;
61270;Laerm;47150;53.032;8.960;2023-02-20T09:03:28;38.61;37.31;40.64;;
61270;Laerm;47150;53.032;8.960;2023-02-20T09:05:53;38.60;37.06;39.77;;
61270;Laerm;47150;53.032;8.960;2023-02-20T09:08:19;38.61;37.29;39.81;;
61270;Laerm;47150;53.032;8.960;2023-02-20T09:10:44;38.62;37.30;40.20;;
61270;Laerm;47150;53.032;8.960;2023-02-20T09:13:10;38.63;37.26;39.99;;
61270;Laerm;47150;53.032;8.960;2023-02-20T09:15:35;38.61;37.30;39.97;;
61270;Laerm;47150;53.032;8.960;2023-02-20T09:18:05;38.63;37.36;39.79;;
61270;Laerm;47150;53.032;8.960;2023-02-20T09:20:31;38.62;37.19;39.94;;
61270;Laerm;47150;53.032;8.960;2023-02-20T09:22:57;38.62;37.10;39.74;;
61270;Laerm;47150;53.032;8.960;2023-02-20T09:25:24;38.61;37.26;39.75;;
61270;Laerm;47150;53.032;8.960;2023-02-20T09:27:49;38.62;37.32;39.85;;
61270;Laerm;47150;53.032;8.960;2023-02-20T09:30:16;38.60;36.87;39.69;;
61270;Laerm;47150;53.032;8.960;2023-02-20T09:32:44;38.61;37.47;39.87;;
61270;Laerm;47150;53.032;8.960;2023-02-20T09:35:15;38.62;37.19;40.23;;
61270;Laerm;47150;53.032;8.960;2023-02-20T09:37:41;38.61;37.23;39.89;;
61270;Laerm;47150;53.032;8.960;2023-02-20T09:40:08;38.62;37.37;39.73;;
61270;Laerm;47150;53.032;8.960;2023-02-20T09:42:42;38.60;37.32;39.68;;
61270;Laerm;47150;53.032;8.960;2023-02-20T09:45:15;38.60;37.34;40.00;;
61270;Laerm;47150;53.032;8.960;2023-02-20T09:50:47;38.60;37.35;40.16;;
61270;Laerm;47150;53.032;8.960;2023-02-20T09:53:38;38.61;37.29;41.47;;
61270;Laerm;47150;53.032;8.960;2023-02-20T09:56:05;38.58;37.13;39.84;;
61270;Laerm;47150;53.032;8.960;2023-02-20T09:58:43;38.59;37.31;40.49;;
61270;Laerm;47150;53.032;8.960;2023-02-20T10:01:15;38.57;37.03;39.95;;
61270;Laerm;47150;53.032;8.960;2023-02-20T10:03:49;38.59;37.33;39.84;;
61270;Laerm;47150;53.032;8.960;2023-02-20T10:06:18;38.58;37.47;40.38;;
61270;Laerm;47150;53.032;8.960;2023-02-20T10:08:46;38.57;37.40;41.75;;
61270;Laerm;47150;53.032;8.960;2023-02-20T10:11:25;38.58;37.09;39.99;;
61270;Laerm;47150;53.032;8.960;2023-02-20T10:19:24;38.60;37.29;39.87;;
61270;Laerm;47150;53.032;8.960;2023-02-20T10:24:45;38.59;37.18;39.93;;
61270;Laerm;47150;53.032;8.960;2023-02-20T10:29:58;38.61;37.38;39.88;;
61270;Laerm;47150;53.032;8.960;2023-02-20T10:32:29;38.61;37.17;39.88;;
61270;Laerm;47150;53.032;8.960;2023-02-20T10:35:05;38.70;37.33;46.49;;
61270;Laerm;47150;53.032;8.960;2023-02-20T10:37:37;38.62;37.36;40.05;;
61270;Laerm;47150;53.032;8.960;2023-02-20T10:40:06;38.62;37.37;40.88;;
61270;Laerm;47150;53.032;8.960;2023-02-20T10:42:41;38.62;37.19;39.90;;
61270;Laerm;47150;53.032;8.960;2023-02-20T10:45:21;38.60;37.12;39.74;;
61270;Laerm;47150;53.032;8.960;2023-02-20T10:48:04;38.65;37.40;44.20;;
61270;Laerm;47150;53.032;8.960;2023-02-20T10:50:40;38.63;37.25;42.12;;
61270;Laerm;47150;53.032;8.960;2023-02-20T10:53:17;38.54;37.14;39.66;;
61270;Laerm;47150;53.032;8.960;2023-02-20T10:55:51;38.61;37.24;40.44;;
61270;Laerm;47150;53.032;8.960;2023-02-20T10:58:22;38.62;36.83;40.56;;
61270;Laerm;47150;53.032;8.960;2023-02-20T11:00:58;38.60;37.41;40.65;;
61270;Laerm;47150;53.032;8.960;2023-02-20T11:03:33;38.58;37.44;40.44;;
61270;Laerm;47150;53.032;8.960;2023-02-20T11:06:01;38.50;37.24;39.79;;
61270;Laerm;47150;53.032;8.960;2023-02-20T11:08:27;38.50;37.15;39.59;;
61270;Laerm;47150;53.032;8.960;2023-02-20T11:10:58;38.47;36.94;39.97;;
61270;Laerm;47150;53.032;8.960;2023-02-20T11:13:24;38.42;37.23;39.70;;
61270;Laerm;47150;53.032;8.960;2023-02-20T11:15:52;38.41;37.10;39.51;;
61270;Laerm;47150;53.032;8.960;2023-02-20T11:18:34;38.40;37.19;39.92;;
61270;Laerm;47150;53.032;8.960;2023-02-20T11:21:02;38.32;37.01;39.44;;
61270;Laerm;47150;53.032;8.960;2023-02-20T11:23:41;37.74;36.41;38.92;;
61270;Laerm;47150;53.032;8.960;2023-02-20T11:28:55;37.99;36.74;39.26;;
61270;Laerm;47150;53.032;8.960;2023-02-20T11:31:21;37.59;35.88;38.94;;
61270;Laerm;47150;53.032;8.960;2023-02-20T11:33:48;36.40;35.01;38.26;;
61270;Laerm;47150;53.032;8.960;2023-02-20T11:36:23;36.36;34.92;37.77;;
61270;Laerm;47150;53.032;8.960;2023-02-20T11:38:57;36.38;34.70;38.11;;
61270;Laerm;47150;53.032;8.960;2023-02-20T11:41:30;35.40;34.03;36.71;;
61270;Laerm;47150;53.032;8.960;2023-02-20T11:44:19;35.92;34.50;37.35;;
61270;Laerm;47150;53.032;8.960;2023-02-20T11:46:45;35.66;34.50;36.84;;
61270;Laerm;47150;53.032;8.960;2023-02-20T11:49:27;35.07;33.33;36.44;;
61270;Laerm;47150;53.032;8.960;2023-02-20T11:52:12;35.08;33.77;36.41;;
61270;Laerm;47150;53.032;8.960;2023-02-20T11:54:39;36.07;34.59;37.65;;
61270;Laerm;47150;53.032;8.960;2023-02-20T11:59:47;37.39;36.16;38.59;;
61270;Laerm;47150;53.032;8.960;2023-02-20T12:07:24;37.66;36.20;39.01;;
61270;Laerm;47150;53.032;8.960;2023-02-20T12:09:53;38.11;36.58;39.41;;
61270;Laerm;47150;53.032;8.960;2023-02-20T12:12:18;38.35;37.06;39.65;;
61270;Laerm;47150;53.032;8.960;2023-02-20T12:14:48;38.44;37.19;39.67;;
61270;Laerm;47150;53.032;8.960;2023-02-20T12:17:30;38.58;37.27;39.78;;
61270;Laerm;47150;53.032;8.960;2023-02-20T12:20:08;38.69;37.48;39.92;;
61270;Laerm;47150;53.032;8.960;2023-02-20T12:22:37;38.74;37.31;40.13;;
61270;Laerm;47150;53.032;8.960;2023-02-20T12:30:44;38.86;37.47;40.17;;
61270;Laerm;47150;53.032;8.960;2023-02-20T12:38:57;38.88;37.63;40.08;;
61270;Laerm;47150;53.032;8.960;2023-02-20T12:41:30;38.87;37.51;40.27;;
61270;Laerm;47150;53.032;8.960;2023-02-20T12:47:28;38.83;37.57;40.35;;
61270;Laerm;47150;53.032;8.960;2023-02-20T13:01:01;38.77;37.23;39.97;;
61270;Laerm;47150;53.032;8.960;2023-02-20T13:06:02;38.59;36.80;40.01;;
61270;Laerm;47150;53.032;8.960;2023-02-20T13:08:32;38.82;37.55;40.11;;
61270;Laerm;47150;53.032;8.960;2023-02-20T13:11:03;38.78;37.62;40.10;;
61270;Laerm;47150;53.032;8.960;2023-02-20T13:13:56;38.76;37.45;39.91;;
61270;Laerm;47150;53.032;8.960;2023-02-20T13:16:35;38.76;37.47;40.13;;
61270;Laerm;47150;53.032;8.960;2023-02-20T13:19:05;38.76;37.50;39.89;;
61270;Laerm;47150;53.032;8.960;2023-02-20T13:21:34;38.75;37.36;40.09;;
61270;Laerm;47150;53.032;8.960;2023-02-20T13:26:49;38.48;37.09;39.77;;
61270;Laerm;47150;53.032;8.960;2023-02-20T13:29:21;38.62;37.32;39.93;;
61270;Laerm;47150;53.032;8.960;2023-02-20T13:31:52;38.64;37.50;39.81;;
61270;Laerm;47150;53.032;8.960;2023-02-20T13:36:44;38.60;37.39;39.75;;
61270;Laerm;47150;53.032;8.960;2023-02-20T13:41:57;38.59;37.25;39.78;;
61270;Laerm;47150;53.032;8.960;2023-02-20T13:44:40;38.12;36.24;39.61;;
61270;Laerm;47150;53.032;8.960;2023-02-20T13:54:54;36.08;34.48;37.48;;
61270;Laerm;47150;53.032;8.960;2023-02-20T13:57:20;35.26;34.04;36.49;;
61270;Laerm;47150;53.032;8.960;2023-02-20T13:59:49;34.63;33.47;35.98;;
61270;Laerm;47150;53.032;8.960;2023-02-20T14:02:19;34.15;32.90;35.45;;
61270;Laerm;47150;53.032;8.960;2023-02-20T14:04:59;33.78;32.52;35.08;;
61270;Laerm;47150;53.032;8.960;2023-02-20T14:07:42;33.48;32.34;34.81;;
61270;Laerm;47150;53.032;8.960;2023-02-20T14:10:26;33.26;32.08;34.50;;
61270;Laerm;47150;53.032;8.960;2023-02-20T14:15:43;32.90;31.73;34.09;;
61270;Laerm;47150;53.032;8.960;2023-02-20T14:18:32;32.78;31.58;33.97;;
61270;Laerm;47150;53.032;8.960;2023-02-20T14:23:38;32.55;31.40;33.59;;
61270;Laerm;47150;53.032;8.960;2023-02-20T14:26:20;32.44;31.21;33.57;;
61270;Laerm;47150;53.032;8.960;2023-02-20T14:28:51;32.30;31.15;33.59;;
61270;Laerm;47150;53.032;8.960;2023-02-20T14:31:22;32.25;30.84;33.35;;
61270;Laerm;47150;53.032;8.960;2023-02-20T14:33:50;32.26;30.89;33.27;;
61270;Laerm;47150;53.032;8.960;2023-02-20T14:36:44;32.74;31.34;34.31;;
61270;Laerm;47150;53.032;8.960;2023-02-20T14:40:12;33.87;32.48;35.50;;
61270;Laerm;47150;53.032;8.960;2023-02-20T14:42:19;35.25;33.44;36.88;;
61270;Laerm;47150;53.032;8.960;2023-02-20T14:44:51;36.84;35.09;38.28;;
61270;Laerm;47150;53.032;8.960;2023-02-20T14:47:19;37.76;36.26;39.06;;
61270;Laerm;47150;53.032;8.960;2023-02-20T14:49:45;38.23;36.65;39.50;;
61270;Laerm;47150;53.032;8.960;2023-02-20T14:52:11;38.46;37.20;39.97;;
61270;Laerm;47150;53.032;8.960;2023-02-20T14:54:39;38.52;37.18;39.68;;
61270;Laerm;47150;53.032;8.960;2023-02-20T14:57:05;37.62;36.16;38.88;;
61270;Laerm;47150;53.032;8.960;2023-02-20T14:59:34;37.38;36.02;38.82;;
61270;Laerm;47150;53.032;8.960;2023-02-20T15:02:15;38.18;37.02;39.45;;
61270;Laerm;47150;53.032;8.960;2023-02-20T15:04:52;38.37;37.04;39.64;;
61270;Laerm;47150;53.032;8.960;2023-02-20T15:07:20;38.58;37.36;39.81;;
61270;Laerm;47150;53.032;8.960;2023-02-20T15:09:49;38.62;37.46;39.91;;
61270;Laerm;47150;53.032;8.960;2023-02-20T15:12:28;38.68;37.14;39.86;;
61270;Laerm;47150;53.032;8.960;2023-02-20T15:15:02;38.74;37.19;39.98;;
61270;Laerm;47150;53.032;8.960;2023-02-20T15:17:36;38.74;37.47;39.83;;
61270;Laerm;47150;53.032;8.960;2023-02-20T15:23:22;38.77;37.33;39.98;;
61270;Laerm;47150;53.032;8.960;2023-02-20T15:25:48;38.81;37.55;40.03;;
61270;Laerm;47150;53.032;8.960;2023-02-20T15:31:05;38.73;37.40;39.85;;
61270;Laerm;47150;53.032;8.960;2023-02-20T15:36:02;38.76;37.56;40.08;;
61270;Laerm;47150;53.032;8.960;2023-02-20T15:38:33;38.79;37.40;40.22;;
61270;Laerm;47150;53.032;8.960;2023-02-20T15:41:00;38.79;37.61;40.02;;
61270;Laerm;47150;53.032;8.960;2023-02-20T15:43:26;38.78;37.55;40.22;;
61270;Laerm;47150;53.032;8.960;2023-02-20T15:45:52;38.56;36.95;39.93;;
61270;Laerm;47150;53.032;8.960;2023-02-20T15:48:19;38.61;37.35;39.84;;
61270;Laerm;47150;53.032;8.960;2023-02-20T15:50:45;38.82;37.67;40.02;;
61270;Laerm;47150;53.032;8.960;2023-02-20T15:53:23;38.83;37.54;40.14;;